Time;durP1;ratioP1;P1;durP2;ratioP2;P2;SDS_P1;SDS_P2;PMS_P1;PMS_P2;Temp;Humidity;BMP_temperature;BMP_pressure;BME280_temperature;BME280_humidity;BME280_pressure;Samples;Min_cycle;Max_cycle;Signal;HPM_P1;HPM_P2
2023/08/11 00:00:40;;;;;;;3.33;1.90;;;;;;;15.85;100.00;100819.31;5607442;31;34377;-70
2023/08/11 00:03:43;;;;;;;3.40;2.10;;;;;;;15.72;100.00;100817.34;5606430;31;33978;-70
2023/08/11 00:06:48;;;;;;;2.33;1.70;;;;;;;15.64;100.00;100820.13;5607257;31;34598;-70
2023/08/11 00:09:50;;;;;;;4.07;2.08;;;;;;;15.55;100.00;100823.94;5607162;31;34039;-70
2023/08/11 00:12:53;;;;;;;2.45;1.70;;;;;;;15.52;100.00;100814.47;5607491;31;35170;-70
2023/08/11 00:15:56;;;;;;;3.00;1.80;;;;;;;15.48;100.00;100825.69;5607376;31;34393;-70
2023/08/11 00:18:59;;;;;;;3.28;1.70;;;;;;;15.48;100.00;100826.53;5607562;31;34337;-70
2023/08/11 00:22:02;;;;;;;3.75;1.90;;;;;;;15.38;100.00;100826.00;5607317;31;33680;-69
2023/08/11 00:25:05;;;;;;;5.60;1.98;;;;;;;15.39;100.00;100826.84;5607051;31;33866;-70
2023/08/11 00:28:08;;;;;;;3.37;1.95;;;;;;;15.30;100.00;100835.97;5607055;31;33764;-70
2023/08/11 00:31:11;;;;;;;9.27;1.95;;;;;;;15.37;100.00;100842.22;5607032;31;34856;-70
2023/08/11 00:34:14;;;;;;;5.05;2.28;;;;;;;15.42;100.00;100837.16;5606991;31;34984;-70
2023/08/11 00:37:17;;;;;;;3.72;1.90;;;;;;;15.41;100.00;100825.62;5606952;31;35260;-70
2023/08/11 00:40:19;;;;;;;6.00;2.05;;;;;;;15.32;100.00;100825.91;5606846;31;33942;-70
2023/08/11 00:43:22;;;;;;;6.03;2.30;;;;;;;15.32;100.00;100821.41;5606789;31;34805;-70
2023/08/11 00:46:25;;;;;;;3.90;2.22;;;;;;;15.22;100.00;100827.03;5606822;31;33864;-71
2023/08/11 00:49:28;;;;;;;5.07;2.08;;;;;;;15.16;100.00;100822.44;5606958;31;33943;-70
2023/08/11 00:52:31;;;;;;;3.65;2.20;;;;;;;15.24;100.00;100824.19;5606953;31;33955;-70
2023/08/11 00:55:34;;;;;;;3.60;2.28;;;;;;;15.21;100.00;100819.19;5606949;31;34248;-70
2023/08/11 00:58:37;;;;;;;4.22;2.40;;;;;;;15.14;100.00;100823.66;5606264;31;34391;-70
2023/08/11 01:01:40;;;;;;;4.07;2.20;;;;;;;15.11;100.00;100830.19;5607128;31;34011;-70
2023/08/11 01:04:43;;;;;;;3.25;2.20;;;;;;;15.08;100.00;100827.91;5607127;31;33826;-70
2023/08/11 01:08:15;;;;;;;3.42;2.17;;;;;;;15.13;100.00;100830.84;5600822;31;34599;-70
2023/08/11 01:11:49;;;;;;;6.53;2.00;;;;;;;15.11;100.00;100829.34;5556854;31;33907;-70
2023/08/11 01:15:00;;;;;;;2.45;1.98;;;;;;;15.05;100.00;100843.47;5562992;31;34355;-70
2023/08/11 01:18:06;;;;;;;6.43;2.25;;;;;;;14.94;100.00;100836.75;5587170;31;34066;-69
2023/08/11 01:21:13;;;;;;;4.22;2.15;;;;;;;14.93;100.00;100837.75;5585867;31;33476;-70
2023/08/11 01:24:17;;;;;;;4.80;2.40;;;;;;;14.75;100.00;100830.13;5585981;31;34564;-70
2023/08/11 01:27:20;;;;;;;3.87;2.25;;;;;;;14.66;100.00;100841.91;5587081;31;32854;-70
2023/08/11 01:30:24;;;;;;;3.50;2.20;;;;;;;14.55;100.00;100834.34;5586756;31;34334;-70
2023/08/11 01:33:26;;;;;;;5.75;2.10;;;;;;;14.38;100.00;100834.69;5586698;31;33654;-70
2023/08/11 01:36:30;;;;;;;6.07;2.22;;;;;;;14.26;100.00;100834.25;5587083;31;33823;-70
2023/08/11 01:39:33;;;;;;;3.42;2.35;;;;;;;14.18;100.00;100829.84;5586699;31;33274;-70
2023/08/11 01:42:43;;;;;;;4.35;2.28;;;;;;;14.08;100.00;100844.41;5586534;31;34477;-70
2023/08/11 01:45:56;;;;;;;4.75;2.25;;;;;;;13.94;100.00;100827.37;5586309;31;33690;-70
2023/08/11 01:49:00;;;;;;;4.37;2.30;;;;;;;13.90;100.00;100837.53;5586411;31;34468;-70
2023/08/11 01:52:04;;;;;;;4.65;2.20;;;;;;;13.92;100.00;100829.38;5586462;31;33618;-70
2023/08/11 01:55:09;;;;;;;6.03;2.42;;;;;;;13.86;100.00;100832.75;5586406;31;33779;-70
2023/08/11 01:58:12;;;;;;;4.50;2.20;;;;;;;13.86;100.00;100835.41;5586633;31;33698;-70
2023/08/11 02:01:15;;;;;;;5.40;2.33;;;;;;;13.80;100.00;100836.94;5586394;31;33908;-70
2023/08/11 02:04:18;;;;;;;4.57;2.12;;;;;;;13.86;100.00;100840.75;5585469;31;34555;-70
2023/08/11 02:07:20;;;;;;;5.53;2.28;;;;;;;13.78;100.00;100838.13;5586023;31;33786;-70
2023/08/11 02:10:24;;;;;;;3.28;2.15;;;;;;;13.76;100.00;100846.31;5586260;31;33636;-70
2023/08/11 02:13:26;;;;;;;5.37;2.50;;;;;;;13.79;100.00;100845.12;5585857;31;34348;-70
2023/08/11 02:16:36;;;;;;;4.78;2.40;;;;;;;13.84;100.00;100842.78;5586170;31;33980;-70
2023/08/11 02:19:39;;;;;;;5.78;2.50;;;;;;;13.76;100.00;100842.81;5585932;31;34267;-70
2023/08/11 02:22:41;;;;;;;6.87;2.50;;;;;;;13.67;100.00;100843.87;5585869;31;33832;-71
2023/08/11 02:25:46;;;;;;;6.32;2.60;;;;;;;13.62;100.00;100846.22;5586206;31;33579;-70
2023/08/11 02:28:49;;;;;;;5.53;2.70;;;;;;;13.55;100.00;100846.13;5585856;31;33839;-70
2023/08/11 02:31:51;;;;;;;3.00;2.40;;;;;;;13.43;100.00;100843.00;5585662;31;33679;-70
2023/08/11 02:34:56;;;;;;;4.15;2.53;;;;;;;13.34;100.00;100845.91;5585939;31;34290;-70
2023/08/11 02:37:58;;;;;;;3.33;2.50;;;;;;;13.33;100.00;100845.06;5585770;31;34259;-70
2023/08/11 02:41:02;;;;;;;5.60;2.53;;;;;;;13.44;100.00;100846.50;5585459;31;34838;-70
2023/08/11 02:44:04;;;;;;;4.78;2.72;;;;;;;13.47;100.00;100841.66;5585205;31;34014;-71
2023/08/11 02:47:08;;;;;;;6.22;2.45;;;;;;;13.40;100.00;100843.37;5585416;31;33788;-70
2023/08/11 02:50:11;;;;;;;4.53;2.67;;;;;;;13.33;100.00;100850.37;5585411;31;33621;-70
2023/08/11 02:53:14;;;;;;;4.12;2.60;;;;;;;13.20;100.00;100852.78;5585239;31;34845;-70
2023/08/11 02:56:16;;;;;;;3.60;2.42;;;;;;;13.15;100.00;100848.97;5585337;31;33962;-70
2023/08/11 02:59:19;;;;;;;3.92;2.55;;;;;;;13.02;100.00;100852.97;5585141;31;34604;-70
2023/08/11 03:02:22;;;;;;;4.03;2.58;;;;;;;13.04;100.00;100853.66;5585158;31;34350;-70
2023/08/11 03:05:25;;;;;;;10.05;2.95;;;;;;;13.05;100.00;100851.81;5584449;31;34455;-70
2023/08/11 03:08:27;;;;;;;4.53;2.92;;;;;;;13.04;100.00;100855.47;5584106;31;33789;-70
2023/08/11 03:11:30;;;;;;;4.65;2.60;;;;;;;12.98;100.00;100853.50;5585377;31;33784;-70
2023/08/11 03:14:39;;;;;;;4.07;2.62;;;;;;;13.02;100.00;100854.84;5585351;31;34227;-70
2023/08/11 03:17:42;;;;;;;4.12;2.92;;;;;;;12.95;100.00;100857.34;5588010;31;33588;-70
2023/08/11 03:20:45;;;;;;;4.15;2.70;;;;;;;12.91;100.00;100860.53;5588029;31;34219;-71
2023/08/11 03:23:49;;;;;;;7.43;2.95;;;;;;;13.02;100.00;100860.97;5587202;31;34591;-70
2023/08/11 03:26:53;;;;;;;5.03;2.70;;;;;;;13.01;100.00;100866.50;5587968;31;33861;-69
2023/08/11 03:29:56;;;;;;;5.80;2.80;;;;;;;12.95;100.00;100864.50;5588249;31;33796;-69
2023/08/11 03:32:59;;;;;;;4.40;2.75;;;;;;;12.88;100.00;100866.16;5587825;31;34575;-69
2023/08/11 03:36:03;;;;;;;4.43;2.90;;;;;;;12.86;100.00;100866.38;5588228;31;33902;-69
2023/08/11 03:39:06;;;;;;;3.97;2.70;;;;;;;12.77;100.00;100872.72;5586910;31;34351;-69
2023/08/11 03:42:09;;;;;;;5.85;2.85;;;;;;;12.78;100.00;100871.69;5587858;31;33817;-70
2023/08/11 03:45:15;;;;;;;5.78;2.87;;;;;;;12.77;100.00;100874.53;5587426;31;34091;-69
2023/08/11 03:48:19;;;;;;;4.28;3.00;;;;;;;12.69;100.00;100877.19;5587777;31;33857;-69
2023/08/11 03:51:22;;;;;;;5.47;3.20;;;;;;;12.70;100.00;100871.72;5587320;31;34565;-69
2023/08/11 03:54:26;;;;;;;5.22;2.90;;;;;;;12.68;100.00;100880.87;5587530;31;34840;-69
2023/08/11 03:57:48;;;;;;;8.90;3.55;;;;;;;12.65;100.00;100874.06;5587822;31;33630;-69
2023/08/11 04:00:52;;;;;;;3.20;2.80;;;;;;;12.67;100.00;100884.53;5587584;31;33810;-69
2023/08/11 04:03:55;;;;;;;4.80;2.90;;;;;;;12.68;100.00;100881.72;5587512;31;33619;-69
2023/08/11 04:06:57;;;;;;;6.97;2.92;;;;;;;12.79;100.00;100888.50;5586275;31;33071;-69
2023/08/11 04:10:05;;;;;;;6.62;2.70;;;;;;;12.87;100.00;100885.84;5587509;31;34061;-69
2023/08/11 04:13:08;;;;;;;6.97;3.20;;;;;;;12.95;100.00;100886.62;5587152;31;33648;-69
2023/08/11 04:16:11;;;;;;;4.57;3.08;;;;;;;13.03;100.00;100893.75;5586995;31;33958;-70
2023/08/11 04:19:13;;;;;;;5.68;3.30;;;;;;;13.09;100.00;100893.09;5587356;31;33721;-70
2023/08/11 04:22:16;;;;;;;5.68;3.30;;;;;;;13.17;100.00;100898.41;5587471;31;34516;-70
2023/08/11 04:25:39;;;;;;;6.28;3.20;;;;;;;13.24;100.00;100898.56;5586391;31;33753;-70
2023/08/11 04:28:43;;;;;;;3.65;2.92;;;;;;;13.27;100.00;100909.69;5586393;31;34313;-70
2023/08/11 04:31:47;;;;;;;6.62;2.95;;;;;;;13.31;100.00;100916.34;5587677;31;34040;-69
2023/08/11 04:34:51;;;;;;;8.00;3.03;;;;;;;13.40;100.00;100910.00;5587141;31;34549;-70
2023/08/11 04:37:54;;;;;;;5.65;3.08;;;;;;;13.52;100.00;100914.94;5586882;31;33648;-69
2023/08/11 04:40:58;;;;;;;6.18;3.42;;;;;;;13.56;100.00;100917.06;5586407;31;33652;-70
2023/08/11 04:44:01;;;;;;;7.32;3.30;;;;;;;13.62;100.00;100908.37;5587469;31;33818;-70
2023/08/11 04:47:04;;;;;;;8.30;3.62;;;;;;;13.67;100.00;100913.19;5587026;31;34047;-70
2023/08/11 04:50:08;;;;;;;5.18;3.08;;;;;;;13.73;100.00;100923.16;5588056;31;34813;-69
2023/08/11 04:53:11;;;;;;;6.50;3.40;;;;;;;13.82;100.00;100928.28;5586860;31;32732;-69
2023/08/11 04:56:14;;;;;;;5.72;3.08;;;;;;;13.86;100.00;100926.91;5586274;31;34088;-70
2023/08/11 04:59:20;;;;;;;6.10;3.25;;;;;;;13.95;100.00;100935.69;5587202;31;33639;-70
2023/08/11 05:02:23;;;;;;;8.02;3.25;;;;;;;14.05;100.00;100938.97;5587079;31;33904;-71
2023/08/11 05:05:26;;;;;;;5.60;3.03;;;;;;;14.18;100.00;100941.06;5586933;31;33750;-71
2023/08/11 05:08:29;;;;;;;6.12;3.20;;;;;;;14.24;100.00;100945.66;5586941;31;33914;-70
2023/08/11 05:11:31;;;;;;;8.00;3.12;;;;;;;14.31;100.00;100943.97;5587019;31;33517;-70
2023/08/11 05:14:34;;;;;;;6.32;3.03;;;;;;;14.49;100.00;100949.84;5591512;31;33820;-71
2023/08/11 05:17:37;;;;;;;4.30;3.00;;;;;;;14.60;100.00;100949.44;5587181;31;34010;-71
2023/08/11 05:20:40;;;;;;;4.15;2.87;;;;;;;14.71;100.00;100957.03;5586698;31;33546;-71
2023/08/11 05:23:43;;;;;;;5.32;3.20;;;;;;;14.74;100.00;100955.81;5586419;31;34523;-71
2023/08/11 05:26:45;;;;;;;4.97;2.83;;;;;;;14.87;100.00;100947.19;5604967;31;34225;-69
2023/08/11 05:29:49;;;;;;;6.07;3.37;;;;;;;14.93;100.00;100946.47;5606402;31;34238;-69
2023/08/11 05:32:52;;;;;;;6.05;2.80;;;;;;;15.09;100.00;100957.81;5599517;31;34226;-69
2023/08/11 05:35:55;;;;;;;5.47;3.12;;;;;;;15.33;100.00;100953.22;5586655;31;34619;-69
2023/08/11 05:38:57;;;;;;;8.65;2.90;;;;;;;15.30;100.00;100957.06;5584865;31;34345;-69
2023/08/11 05:42:00;;;;;;;9.55;2.92;;;;;;;15.47;100.00;100957.72;5586102;31;33843;-69
2023/08/11 05:45:03;;;;;;;6.75;2.83;;;;;;;15.45;100.00;100965.09;5586019;31;33882;-69
2023/08/11 05:48:07;;;;;;;7.95;2.50;;;;;;;15.56;100.00;100951.31;5585509;31;33719;-70
2023/08/11 05:51:09;;;;;;;7.72;2.90;;;;;;;15.78;100.00;100971.72;5585917;31;34401;-69
2023/08/11 05:54:12;;;;;;;5.70;2.75;;;;;;;15.83;100.00;100963.97;5586182;31;33901;-69
2023/08/11 05:57:15;;;;;;;8.75;2.80;;;;;;;15.83;100.00;100963.19;5586436;31;33858;-69
2023/08/11 06:00:19;;;;;;;7.47;2.67;;;;;;;15.87;100.00;100961.78;5586291;31;34604;-69
2023/08/11 06:03:22;;;;;;;7.87;2.50;;;;;;;15.92;100.00;100959.37;5585827;31;33826;-69
2023/08/11 06:06:26;;;;;;;6.05;2.90;;;;;;;16.05;100.00;100960.34;5586099;31;34519;-69
2023/08/11 06:09:29;;;;;;;7.43;3.22;;;;;;;16.20;100.00;100962.13;5586117;31;33811;-68
2023/08/11 06:12:32;;;;;;;5.68;2.50;;;;;;;16.34;100.00;100970.13;5585961;31;34431;-67
2023/08/11 06:15:35;;;;;;;6.05;2.87;;;;;;;16.42;100.00;100978.00;5585863;31;34022;-68
2023/08/11 06:18:38;;;;;;;5.30;2.35;;;;;;;16.57;100.00;100977.13;5585477;31;34167;-69
2023/08/11 06:21:40;;;;;;;5.25;2.15;;;;;;;16.67;100.00;100983.84;5584744;31;33822;-68
2023/08/11 06:24:43;;;;;;;3.83;2.40;;;;;;;16.58;100.00;100970.75;5585083;31;32945;-68
2023/08/11 06:27:46;;;;;;;5.93;2.30;;;;;;;16.84;100.00;100987.94;5585364;31;34565;-68
2023/08/11 06:30:49;;;;;;;4.90;2.42;;;;;;;16.88;100.00;100981.16;5585473;31;33562;-69
2023/08/11 06:33:52;;;;;;;4.75;2.47;;;;;;;17.05;100.00;100970.94;5584590;31;33878;-67
2023/08/11 06:36:54;;;;;;;4.25;2.90;;;;;;;17.08;100.00;100981.31;5585665;31;33879;-67
2023/08/11 06:39:58;;;;;;;6.85;2.58;;;;;;;17.12;100.00;100981.72;5585330;31;35391;-66
2023/08/11 06:43:01;;;;;;;12.05;2.60;;;;;;;17.24;100.00;100988.19;5585233;31;34104;-67
2023/08/11 06:46:04;;;;;;;4.72;2.80;;;;;;;17.33;100.00;100985.16;5585266;31;34841;-67
2023/08/11 06:49:06;;;;;;;6.87;2.30;;;;;;;17.53;100.00;100987.13;5586081;31;34079;-68
2023/08/11 06:52:09;;;;;;;4.53;2.33;;;;;;;17.91;100.00;101001.00;5588184;31;33623;-68
2023/08/11 06:55:12;;;;;;;4.93;2.33;;;;;;;17.92;100.00;100995.41;5587832;31;34562;-68
2023/08/11 06:58:15;;;;;;;5.85;2.22;;;;;;;18.28;100.00;100996.97;5587848;31;33761;-68
2023/08/11 07:01:18;;;;;;;3.95;2.10;;;;;;;18.57;100.00;101008.22;5587772;31;33931;-69
2023/08/11 07:04:21;;;;;;;3.03;2.08;;;;;;;18.65;100.00;101007.19;5587534;31;34449;-68
2023/08/11 07:07:23;;;;;;;4.43;2.50;;;;;;;19.02;100.00;101003.91;5587937;31;33941;-68
2023/08/11 07:10:27;;;;;;;5.22;2.25;;;;;;;19.19;100.00;101001.59;5599817;31;34482;-68
2023/08/11 07:13:30;;;;;;;8.45;2.37;;;;;;;19.23;100.00;101004.69;5606610;31;33858;-68
2023/08/11 07:16:33;;;;;;;4.12;2.03;;;;;;;20.51;100.00;101001.16;5607107;31;33810;-69
2023/08/11 07:19:36;;;;;;;5.10;2.20;;;;;;;20.99;100.00;100993.31;5607888;31;34034;-69
2023/08/11 07:22:39;;;;;;;5.20;2.15;;;;;;;22.41;82.51;101006.47;5607668;31;33828;-69
2023/08/11 07:25:42;;;;;;;3.10;1.85;;;;;;;22.37;85.08;101000.69;5607116;31;33595;-68
2023/08/11 07:28:46;;;;;;;2.83;1.70;;;;;;;23.53;71.72;101008.16;5607453;31;33759;-69
2023/08/11 07:31:49;;;;;;;4.03;2.00;;;;;;;22.56;77.79;101014.94;5607361;31;33583;-69
2023/08/11 07:34:51;;;;;;;6.05;2.20;;;;;;;22.32;79.04;101000.53;5607236;31;34312;-69
2023/08/11 07:37:54;;;;;;;4.28;2.35;;;;;;;23.69;72.20;101012.84;5607186;31;32397;-70
2023/08/11 07:40:57;;;;;;;4.80;2.83;;;;;;;23.49;71.41;101012.41;5606830;31;33843;-69
2023/08/11 07:44:00;;;;;;;4.72;1.80;;;;;;;25.28;60.44;101013.59;5605471;31;33796;-68
2023/08/11 07:47:03;;;;;;;8.73;2.28;;;;;;;23.65;64.15;101008.97;5598405;31;33685;-69
2023/08/11 07:50:07;;;;;;;3.30;1.77;;;;;;;24.41;63.63;101007.78;5586938;31;34104;-69
2023/08/11 07:53:09;;;;;;;4.90;1.90;;;;;;;25.67;57.48;101013.63;5587488;31;33682;-70
2023/08/11 07:56:12;;;;;;;4.97;2.10;;;;;;;25.32;59.22;101011.22;5587307;31;33907;-69
2023/08/11 07:59:15;;;;;;;3.87;1.70;;;;;;;24.98;59.78;101013.94;5586356;31;33713;-70
2023/08/11 08:02:18;;;;;;;3.12;1.50;;;;;;;25.91;55.68;101015.84;5586507;31;34293;-70
2023/08/11 08:05:22;;;;;;;4.10;1.70;;;;;;;26.38;53.70;101018.84;5586986;31;33761;-70
2023/08/11 08:08:24;;;;;;;6.12;1.70;;;;;;;27.15;51.21;101023.09;5586740;31;34803;-70
2023/08/11 08:11:28;;;;;;;3.08;1.80;;;;;;;25.61;56.13;101022.81;5597771;31;33604;-69
2023/08/11 08:14:31;;;;;;;4.35;1.90;;;;;;;26.67;52.75;101024.03;5595521;31;32855;-69
2023/08/11 08:17:34;;;;;;;4.65;2.03;;;;;;;26.95;52.23;101023.78;5604541;31;33807;-68
2023/08/11 08:20:37;;;;;;;5.75;1.70;;;;;;;26.39;53.43;101022.38;5604098;31;33792;-69
2023/08/11 08:23:41;;;;;;;5.10;1.80;;;;;;;26.25;54.39;101015.72;5589282;31;33583;-70
2023/08/11 08:26:44;;;;;;;5.62;1.75;;;;;;;27.20;51.50;101025.84;5587293;31;34364;-69
2023/08/11 08:29:47;;;;;;;4.40;1.98;;;;;;;26.67;53.06;101024.88;5605574;31;33902;-70
2023/08/11 08:32:49;;;;;;;9.48;2.00;;;;;;;26.24;54.15;101024.94;5595350;31;33617;-70
2023/08/11 08:35:52;;;;;;;2.47;1.70;;;;;;;26.08;54.07;101023.94;5595748;31;34509;-69
2023/08/11 08:38:55;;;;;;;4.95;1.75;;;;;;;26.52;52.63;101011.13;5600799;31;34890;-69
2023/08/11 08:41:59;;;;;;;6.65;1.92;;;;;;;25.92;54.11;101025.66;5585934;31;33674;-68
2023/08/11 08:45:03;;;;;;;8.13;2.10;;;;;;;26.14;54.50;101019.38;5579874;31;33427;-69
2023/08/11 08:48:13;;;;;;;3.80;1.90;;;;;;;25.56;55.93;101022.72;5569053;31;33933;-69
2023/08/11 08:51:15;;;;;;;5.28;1.90;;;;;;;26.95;51.92;101025.66;5570451;31;34166;-69
2023/08/11 08:54:19;;;;;;;2.92;1.60;;;;;;;26.88;50.78;101025.88;5566858;32;33765;-70
2023/08/11 08:57:25;;;;;;;4.72;1.90;;;;;;;27.16;48.55;101025.53;5566138;32;33822;-70
2023/08/11 09:00:32;;;;;;;6.97;1.67;;;;;;;28.58;48.29;101017.19;5552825;32;33926;-68
2023/08/11 09:03:37;;;;;;;3.55;1.60;;;;;;;28.75;43.71;101023.25;5566945;32;33867;-69
2023/08/11 09:06:41;;;;;;;8.25;2.03;;;;;;;29.27;43.54;101025.66;5567110;32;33862;-69
2023/08/11 09:09:44;;;;;;;5.75;1.50;;;;;;;29.11;43.71;101022.12;5566913;32;33992;-69
2023/08/11 09:12:48;;;;;;;3.60;1.40;;;;;;;29.61;40.75;101028.62;5566431;32;34944;-70
2023/08/11 09:15:51;;;;;;;3.08;1.73;;;;;;;28.13;42.97;101021.47;5567272;32;33744;-70
2023/08/11 09:18:54;;;;;;;14.15;3.03;;;;;;;29.04;42.62;101032.53;5566982;32;33970;-70
2023/08/11 09:21:56;;;;;;;2.40;1.42;;;;;;;30.27;39.94;101028.34;5566656;32;33884;-71
2023/08/11 09:24:59;;;;;;;4.30;1.27;;;;;;;30.29;40.38;101031.62;5566710;32;35092;-70
2023/08/11 09:28:02;;;;;;;4.12;1.40;;;;;;;29.94;40.65;101029.87;5566631;32;34745;-71
2023/08/11 09:31:06;;;;;;;3.35;1.60;;;;;;;29.19;42.09;101020.78;5567091;31;33951;-71
2023/08/11 09:34:14;;;;;;;3.42;1.60;;;;;;;29.98;42.25;101026.31;5586115;31;33866;-70
2023/08/11 09:37:17;;;;;;;3.80;1.65;;;;;;;31.42;38.00;101023.06;5586241;31;34790;-71
2023/08/11 09:40:23;;;;;;;5.25;1.80;;;;;;;30.71;40.13;101014.66;5586180;31;34523;-69
2023/08/11 09:43:26;;;;;;;3.47;1.50;;;;;;;29.85;38.98;101015.94;5586016;31;33655;-70
2023/08/11 09:46:31;;;;;;;3.85;1.48;;;;;;;30.35;39.31;101019.56;5597726;31;33593;-71
2023/08/11 09:49:34;;;;;;;3.00;1.50;;;;;;;29.40;40.13;101019.66;5605466;31;33993;-71
2023/08/11 09:52:38;;;;;;;5.05;1.52;;;;;;;30.75;37.66;101019.28;5604562;31;34738;-71
2023/08/11 09:55:42;;;;;;;4.97;1.65;;;;;;;31.38;37.93;101017.34;5605773;31;34375;-71
2023/08/11 09:58:47;;;;;;;3.00;1.60;;;;;;;30.01;39.71;101005.78;5604626;31;34050;-71
2023/08/11 10:01:53;;;;;;;2.83;1.60;;;;;;;28.80;40.38;101001.41;5595619;31;34321;-70
2023/08/11 10:05:02;;;;;;;3.78;1.73;;;;;;;30.47;39.18;101012.66;5603949;31;33935;-69
2023/08/11 10:08:06;;;;;;;;;;;;;;;30.22;38.42;101002.66;5594174;31;34583;-70
2023/08/11 10:11:09;;;;;;;4.45;1.58;;;;;;;31.15;37.18;101001.69;5600968;31;34108;-70
2023/08/11 10:14:18;;;;;;;4.60;1.37;;;;;;;32.28;35.48;101011.06;5594690;31;32310;-70
2023/08/11 10:17:22;;;;;;;2.72;1.30;;;;;;;31.98;32.45;101011.44;5597135;31;33743;-70
2023/08/11 10:20:25;;;;;;;3.20;1.60;;;;;;;31.02;35.13;101010.59;5592740;31;33920;-70
2023/08/11 10:23:29;;;;;;;4.45;1.55;;;;;;;32.81;34.44;101008.06;5590570;31;34026;-69
2023/08/11 10:26:33;;;;;;;2.80;1.40;;;;;;;33.54;32.18;101002.59;5608110;31;33891;-69
2023/08/11 10:29:38;;;;;;;2.33;1.60;;;;;;;32.73;33.28;100999.37;5607847;31;34739;-71
2023/08/11 10:32:41;;;;;;;3.10;1.62;;;;;;;34.47;31.10;101001.94;5607610;31;33690;-70
2023/08/11 10:35:46;;;;;;;2.10;1.45;;;;;;;32.13;33.88;100992.06;5607535;31;33850;-69
2023/08/11 10:39:01;;;;;;;1.67;1.30;;;;;;;30.75;35.60;100991.06;5607624;31;33819;-69
2023/08/11 10:42:04;;;;;;;1.58;1.30;;;;;;;32.48;31.93;100986.03;5607724;31;34663;-69
2023/08/11 10:45:09;;;;;;;4.12;1.30;;;;;;;35.56;29.17;100988.66;5607499;31;33582;-72
2023/08/11 10:48:12;;;;;;;2.75;1.35;;;;;;;38.35;26.17;100990.94;5607418;31;34560;-71
2023/08/11 10:51:35;;;;;;;2.47;1.37;;;;;;;35.61;28.05;100994.03;5607715;31;34398;-70
2023/08/11 10:54:49;;;;;;;1.90;1.30;;;;;;;33.28;28.28;100983.03;5606722;31;33898;-70
2023/08/11 10:58:13;;;;;;;2.50;1.15;;;;;;;33.79;28.66;100977.31;5607535;31;34700;-69
2023/08/11 11:01:17;;;;;;;2.78;1.20;;;;;;;32.54;28.07;100979.31;5607218;31;33633;-69
2023/08/11 11:04:22;;;;;;;2.28;1.00;;;;;;;33.09;29.42;100974.81;5605279;31;34454;-68
2023/08/11 11:07:27;;;;;;;1.80;1.48;;;;;;;31.99;30.19;100960.94;5594545;31;33886;-70
2023/08/11 11:10:30;;;;;;;2.58;1.30;;;;;;;31.52;30.94;100960.69;5601976;31;33751;-71
2023/08/11 11:13:50;;;;;;;2.25;1.00;;;;;;;32.44;27.87;100968.50;5591009;31;33981;-69
2023/08/11 11:16:54;;;;;;;2.55;1.10;;;;;;;33.40;26.75;100969.59;5602677;31;34925;-68
2023/08/11 11:19:59;;;;;;;5.20;1.20;;;;;;;33.81;25.41;100971.50;5588000;31;34629;-69
2023/08/11 11:23:05;;;;;;;3.75;1.17;;;;;;;33.63;26.59;100971.31;5601461;31;33834;-70
2023/08/11 11:26:08;;;;;;;2.10;1.10;;;;;;;36.00;25.26;100971.06;5587680;31;34575;-71
2023/08/11 11:29:11;;;;;;;2.45;1.10;;;;;;;33.89;25.14;100968.84;5591723;31;33898;-71
2023/08/11 11:32:16;;;;;;;3.85;1.27;;;;;;;36.21;23.62;100972.09;5596307;31;34032;-70
2023/08/11 11:35:19;;;;;;;3.75;1.20;;;;;;;35.84;24.17;100972.66;5596520;31;33463;-70
2023/08/11 11:38:22;;;;;;;3.67;1.02;;;;;;;35.05;24.34;100959.69;5589889;31;33766;-70
2023/08/11 11:41:25;;;;;;;1.30;1.08;;;;;;;35.02;24.09;100965.84;5586850;31;33884;-70
2023/08/11 11:44:30;;;;;;;2.45;1.50;;;;;;;38.43;21.74;100971.47;5587547;31;33823;-70
2023/08/11 11:47:33;;;;;;;2.15;1.40;;;;;;;37.76;22.44;100964.16;5594849;31;33911;-71
2023/08/11 11:50:36;;;;;;;5.22;1.45;;;;;;;37.71;24.35;100969.09;5595715;31;33942;-69
2023/08/11 11:53:41;;;;;;;1.42;1.20;;;;;;;35.14;27.93;100965.25;5599211;31;34136;-71
2023/08/11 11:56:44;;;;;;;1.60;1.42;;;;;;;35.21;27.30;100966.44;5606173;31;35484;-70
2023/08/11 12:00:16;;;;;;;2.55;1.50;;;;;;;36.61;26.02;100967.19;5606735;31;34966;-69
2023/08/11 12:03:20;;;;;;;2.17;1.40;;;;;;;34.74;28.17;100962.47;5586234;31;35557;-70
2023/08/11 12:06:26;;;;;;;3.12;1.40;;;;;;;34.80;27.61;100946.59;5587241;31;33721;-71
2023/08/11 12:09:29;;;;;;;2.35;1.50;;;;;;;35.59;27.52;100955.69;5591335;31;34347;-70
2023/08/11 12:12:33;;;;;;;4.80;1.55;;;;;;;34.02;28.12;100945.97;5585791;31;33780;-70
2023/08/11 12:15:35;;;;;;;2.65;1.40;;;;;;;34.80;27.97;100952.94;5587242;31;33757;-70
2023/08/11 12:18:39;;;;;;;2.58;1.25;;;;;;;34.35;27.32;100949.34;5587538;31;33514;-69
2023/08/11 12:21:42;;;;;;;4.20;1.50;;;;;;;35.27;25.34;100951.38;5587623;31;33845;-69
2023/08/11 12:24:45;;;;;;;3.03;1.17;;;;;;;35.54;26.03;100958.59;5587012;31;33498;-71
2023/08/11 12:27:48;;;;;;;1.10;1.00;;;;;;;37.90;22.57;100954.78;5587036;31;34451;-70
2023/08/11 12:30:51;;;;;;;4.05;1.00;;;;;;;39.32;20.79;100955.19;5587118;31;33777;-69
2023/08/11 12:33:54;;;;;;;2.42;1.27;;;;;;;39.24;21.52;100958.87;5586984;31;33802;-70
2023/08/11 12:36:58;;;;;;;7.18;1.83;;;;;;;35.99;24.94;100947.34;5587426;31;33673;-69
2023/08/11 12:40:01;;;;;;;6.78;1.50;;;;;;;36.81;24.60;100951.84;5587344;31;34087;-69
2023/08/11 12:43:04;;;;;;;3.00;1.25;;;;;;;37.77;23.26;100948.34;5587089;31;34617;-69
2023/08/11 12:46:08;;;;;;;2.67;1.40;;;;;;;36.83;23.93;100950.41;5586256;31;34882;-70
2023/08/11 12:49:12;;;;;;;1.58;1.20;;;;;;;38.93;21.77;100962.19;5586125;31;33780;-69
2023/08/11 12:52:16;;;;;;;2.33;1.42;;;;;;;38.19;22.61;100952.78;5589647;31;33812;-70
2023/08/11 12:55:19;;;;;;;3.30;1.35;;;;;;;39.82;21.39;100957.59;5587007;31;33784;-68
2023/08/11 12:58:21;;;;;;;5.28;1.40;;;;;;;35.97;25.29;100944.09;5586273;31;33787;-68
2023/08/11 13:01:26;;;;;;;3.15;1.20;;;;;;;39.02;22.34;100952.59;5586133;31;33845;-69
2023/08/11 13:04:29;;;;;;;6.55;1.37;;;;;;;40.52;20.74;100953.34;5587012;31;34163;-69
2023/08/11 13:07:32;;;;;;;15.13;1.48;;;;;;;36.92;23.67;100939.31;5587003;31;33803;-68
2023/08/11 13:10:35;;;;;;;1.52;1.20;;;;;;;36.11;25.63;100934.53;5590582;31;34506;-69
2023/08/11 13:13:38;;;;;;;3.05;1.33;;;;;;;38.87;22.57;100938.59;5587724;31;35315;-69
2023/08/11 13:16:41;;;;;;;5.15;1.70;;;;;;;32.70;28.38;100927.72;5590402;31;33818;-70
2023/08/11 13:19:44;;;;;;;4.65;1.37;;;;;;;35.28;25.57;100942.00;5606265;31;33839;-69
2023/08/11 13:22:46;;;;;;;3.00;1.40;;;;;;;37.04;24.02;100938.63;5604061;31;34954;-69
2023/08/11 13:25:50;;;;;;;5.97;1.40;;;;;;;36.79;23.29;100946.69;5603079;31;34511;-69
2023/08/11 13:28:57;;;;;;;2.70;1.40;;;;;;;34.31;26.37;100933.78;5597777;31;33122;-68
2023/08/11 13:32:00;;;;;;;2.20;1.30;;;;;;;38.46;21.37;100945.87;5591583;31;34361;-68
2023/08/11 13:35:04;;;;;;;2.05;1.00;;;;;;;37.57;21.66;100944.41;5594503;31;33473;-68
2023/08/11 13:38:08;;;;;;;8.38;1.50;;;;;;;35.43;23.58;100943.50;5589507;31;33919;-70
2023/08/11 13:41:10;;;;;;;1.55;1.37;;;;;;;38.94;20.11;100944.38;5594756;31;33746;-68
2023/08/11 13:44:13;;;;;;;4.35;1.40;;;;;;;37.10;21.21;100934.53;5597353;31;34706;-70
2023/08/11 13:47:16;;;;;;;5.90;1.60;;;;;;;37.65;20.58;100934.44;5602294;31;33931;-70
2023/08/11 13:50:21;;;;;;;2.45;1.48;;;;;;;37.57;21.48;100933.31;5597963;31;32763;-69
2023/08/11 13:53:23;;;;;;;1.62;1.12;;;;;;;41.02;17.41;100929.59;5587205;31;33781;-71
2023/08/11 13:56:26;;;;;;;3.45;1.20;;;;;;;39.54;18.45;100936.09;5588810;31;34059;-70
2023/08/11 13:59:29;;;;;;;2.28;1.30;;;;;;;37.10;21.22;100926.22;5595550;31;33911;-71
2023/08/11 14:02:32;;;;;;;4.93;1.33;;;;;;;36.42;22.07;100925.25;5604695;31;33878;-69
2023/08/11 14:05:35;;;;;;;2.45;1.30;;;;;;;36.47;22.42;100925.88;5603343;31;34179;-70
2023/08/11 14:08:39;;;;;;;1.83;1.30;;;;;;;37.99;20.71;100930.62;5603392;31;33859;-70
2023/08/11 14:11:42;;;;;;;2.10;1.52;;;;;;;39.87;18.83;100935.94;5588974;31;33902;-70